createdAt,value
2022-11-23T00:02:08.611Z,33.03
2022-11-23T00:04:45.686Z,32.03
2022-11-23T00:07:19.091Z,32.93
2022-11-23T00:09:52.595Z,34.67
2022-11-23T00:12:26.097Z,36.37
2022-11-23T00:14:59.369Z,34.53
2022-11-23T00:17:32.679Z,32.53
2022-11-23T00:20:06.468Z,31.50
2022-11-23T00:22:39.685Z,30.93
2022-11-23T00:25:13.310Z,32.17
2022-11-23T00:27:46.997Z,34.70
2022-11-23T00:30:21.307Z,30.83
2022-11-23T00:32:55.781Z,31.90
2022-11-23T00:35:29.242Z,33.30
2022-11-23T00:38:02.420Z,34.27
2022-11-23T00:40:35.924Z,32.03
2022-11-23T00:43:12.596Z,29.70
2022-11-23T00:45:46.007Z,28.80
2022-11-23T00:48:19.863Z,30.97
2022-11-23T00:50:53.184Z,30.70
2022-11-23T00:53:26.660Z,34.27
2022-11-23T00:56:00.155Z,30.77
2022-11-23T00:58:34.186Z,31.97
2022-11-23T01:01:12.226Z,31.43
2022-11-23T01:03:47.446Z,29.47
2022-11-23T01:06:22.936Z,30.93
2022-11-23T01:09:00.147Z,31.20
2022-11-23T01:11:34.851Z,30.50
2022-11-23T01:14:08.008Z,31.90
2022-11-23T01:16:43.484Z,28.93
2022-11-23T01:19:19.138Z,28.97
2022-11-23T01:22:42.503Z,31.53
2022-11-23T01:25:46.758Z,29.30
2022-11-23T01:28:20.053Z,31.47
2022-11-23T01:30:53.228Z,29.63
2022-11-23T01:33:31.638Z,31.93
2022-11-23T01:36:12.363Z,30.30
2022-11-23T01:38:46.767Z,30.50
2022-11-23T01:41:23.069Z,26.90
2022-11-23T01:44:33.100Z,29.33
2022-11-23T01:47:09.110Z,27.60
2022-11-23T01:49:47.162Z,29.70
2022-11-23T01:52:23.462Z,28.93
2022-11-23T01:55:08.635Z,29.23
2022-11-23T01:57:45.630Z,28.80
2022-11-23T02:00:19.161Z,28.37
2022-11-23T02:02:56.960Z,26.67
2022-11-23T02:05:36.091Z,27.77
2022-11-23T02:08:12.272Z,28.60
2022-11-23T02:10:45.792Z,31.40
2022-11-23T02:13:18.924Z,28.03
2022-11-23T02:15:54.462Z,28.90
2022-11-23T02:18:30.856Z,27.57
2022-11-23T02:21:05.517Z,28.60
2022-11-23T02:23:48.244Z,28.37
2022-11-23T02:26:26.308Z,28.73
2022-11-23T02:29:05.937Z,26.03
2022-11-23T02:31:39.576Z,27.80
2022-11-23T02:34:15.452Z,27.10
2022-11-23T02:36:52.276Z,24.93
2022-11-23T02:39:32.490Z,24.87
2022-11-23T02:42:07.789Z,26.13
2022-11-23T02:44:48.815Z,26.83
2022-11-23T02:47:22.011Z,26.83
2022-11-23T02:49:55.406Z,27.33
2022-11-23T02:52:28.769Z,38.27
2022-11-23T02:55:04.096Z,27.17
2022-11-23T02:57:38.337Z,27.40
2022-11-23T03:00:13.791Z,28.43
2022-11-23T03:03:22.482Z,27.97
2022-11-23T03:06:11.998Z,25.10
2022-11-23T03:08:45.276Z,27.37
2022-11-23T03:11:19.088Z,25.37
2022-11-23T03:13:53.585Z,28.87
2022-11-23T03:16:50.509Z,26.27
2022-11-23T03:19:49.542Z,30.10
2022-11-23T03:23:08.544Z,29.97
2022-11-23T03:26:00.210Z,27.43
2022-11-23T03:28:39.590Z,27.43
2022-11-23T03:31:13.427Z,28.07
2022-11-23T03:33:51.276Z,28.00
2022-11-23T03:36:24.950Z,27.90
2022-11-23T03:38:58.067Z,30.30
2022-11-23T03:41:43.620Z,42.07
2022-11-23T03:44:16.942Z,37.20
2022-11-23T03:46:52.103Z,39.40
2022-11-23T03:49:30.545Z,31.80
2022-11-23T03:52:04.462Z,27.37
2022-11-23T03:54:39.009Z,28.30
2022-11-23T03:57:12.664Z,29.30
2022-11-23T03:59:46.411Z,28.23
2022-11-23T04:02:20.519Z,28.67
2022-11-23T04:05:07.613Z,29.67
2022-11-23T04:08:06.619Z,30.53
2022-11-23T04:10:45.037Z,30.87
2022-11-23T04:13:25.551Z,29.63
2022-11-23T04:15:58.954Z,29.43
2022-11-23T04:18:32.198Z,29.77
2022-11-23T04:21:05.667Z,30.13
2022-11-23T04:23:38.924Z,32.13
2022-11-23T04:26:14.252Z,29.90
2022-11-23T04:28:48.780Z,29.50
2022-11-23T04:31:22.079Z,31.17
2022-11-23T04:34:04.458Z,30.93
2022-11-23T04:36:40.965Z,30.30
2022-11-23T04:39:16.899Z,28.50
2022-11-23T04:44:41.311Z,28.55
2022-11-23T04:47:15.088Z,29.40
2022-11-23T04:49:53.613Z,32.40
2022-11-23T04:52:32.832Z,32.77
2022-11-23T04:55:06.503Z,32.00
2022-11-23T04:57:40.283Z,32.73
2022-11-23T05:00:17.218Z,33.33
2022-11-23T05:02:54.634Z,34.83
2022-11-23T05:05:31.790Z,31.53
2022-11-23T05:08:08.629Z,30.87
2022-11-23T05:11:04.720Z,34.27
2022-11-23T05:13:38.304Z,31.77
2022-11-23T05:16:11.549Z,31.33
2022-11-23T05:18:47.137Z,31.10
2022-11-23T05:21:20.794Z,28.63
2022-11-23T05:23:54.963Z,32.67
2022-11-23T05:26:30.511Z,32.17
2022-11-23T05:29:03.849Z,32.13
2022-11-23T05:31:41.345Z,34.77
2022-11-23T05:34:18.099Z,30.43
2022-11-23T05:36:52.383Z,31.63
2022-11-23T05:39:26.830Z,34.20
2022-11-23T05:42:00.252Z,28.30
2022-11-23T05:44:46.082Z,29.67
2022-11-23T05:47:25.153Z,29.00
2022-11-23T05:49:58.771Z,29.90
2022-11-23T05:52:33.363Z,28.17
2022-11-23T05:55:07.391Z,29.00
2022-11-23T05:57:43.534Z,27.93
2022-11-23T06:00:19.516Z,28.90
2022-11-23T06:02:54.910Z,28.10
2022-11-23T06:05:29.433Z,27.87
2022-11-23T06:08:02.621Z,29.07
2022-11-23T06:10:36.016Z,27.23
2022-11-23T06:13:09.044Z,26.57
2022-11-23T06:15:42.272Z,29.60
2022-11-23T06:18:16.845Z,26.97
2022-11-23T06:20:53.749Z,27.13
2022-11-23T06:23:26.910Z,26.20
2022-11-23T06:26:02.868Z,27.13
2022-11-23T06:28:38.571Z,25.97
2022-11-23T06:31:12.315Z,26.40
2022-11-23T06:33:48.334Z,28.20
2022-11-23T06:36:21.378Z,25.03
2022-11-23T06:38:56.248Z,33.57
2022-11-23T06:41:32.634Z,25.70
2022-11-23T06:44:07.284Z,27.53
2022-11-23T06:46:44.976Z,24.07
2022-11-23T06:49:20.729Z,25.73
2022-11-23T06:52:09.665Z,25.20
2022-11-23T06:54:43.002Z,24.17
2022-11-23T06:57:16.115Z,26.80
2022-11-23T06:59:49.485Z,24.50
2022-11-23T07:02:23.929Z,23.80
2022-11-23T07:04:57.230Z,29.47
2022-11-23T07:07:30.867Z,30.80
2022-11-23T07:10:12.279Z,29.27
2022-11-23T07:13:10.116Z,29.87
2022-11-23T07:15:46.260Z,30.70
2022-11-23T07:18:19.413Z,29.53
2022-11-23T07:20:58.559Z,31.77
2022-11-23T07:23:32.231Z,33.13
2022-11-23T07:26:06.773Z,38.47
2022-11-23T07:28:41.388Z,38.87
2022-11-23T07:31:16.475Z,35.13
2022-11-23T07:33:49.938Z,33.83
2022-11-23T07:36:23.097Z,52.47
2022-11-23T07:38:56.701Z,29.30
2022-11-23T07:41:30.009Z,26.67
2022-11-23T07:44:29.115Z,27.90
2022-11-23T07:47:07.029Z,24.97
2022-11-23T07:49:40.001Z,36.73
2022-11-23T07:52:13.487Z,30.27
2022-11-23T07:54:46.638Z,30.73
2022-11-23T07:57:27.200Z,29.73
2022-11-23T08:00:03.789Z,31.50
2022-11-23T08:03:25.673Z,32.00
2022-11-23T08:06:26.108Z,31.33
2022-11-23T08:11:30.732Z,28.03
2022-11-23T08:14:03.905Z,28.73
2022-11-23T08:16:37.295Z,22.60
2022-11-23T08:19:10.809Z,24.40
2022-11-23T08:21:50.215Z,23.30
2022-11-23T08:24:23.272Z,29.47
2022-11-23T08:26:57.538Z,26.37
2022-11-23T08:29:30.769Z,24.03
2022-11-23T08:32:06.715Z,23.70
2022-11-23T08:34:39.825Z,34.07
2022-11-23T08:37:12.973Z,36.63
2022-11-23T08:39:46.669Z,33.60
2022-11-23T08:42:22.067Z,35.07
2022-11-23T08:44:55.202Z,27.43
2022-11-23T08:47:28.596Z,32.23
2022-11-23T08:50:01.613Z,36.47
2022-11-23T08:52:35.084Z,29.43
2022-11-23T08:55:09.105Z,36.67
2022-11-23T08:57:42.301Z,37.35
2022-11-23T09:00:18.157Z,32.23
2022-11-23T09:02:52.621Z,41.77
2022-11-23T09:05:26.027Z,36.40
2022-11-23T09:08:00.918Z,35.33
2022-11-23T09:10:34.075Z,29.40
2022-11-23T09:13:07.177Z,30.30
2022-11-23T09:15:40.466Z,27.43
2022-11-23T09:18:13.906Z,22.57
2022-11-23T09:20:46.893Z,23.40
2022-11-23T09:23:22.939Z,23.67
2022-11-23T09:25:55.895Z,22.90
2022-11-23T09:28:29.212Z,24.40
2022-11-23T09:31:06.181Z,24.00
2022-11-23T09:33:39.246Z,23.17
2022-11-23T09:36:12.594Z,23.00
2022-11-23T09:38:56.253Z,22.07
2022-11-23T09:42:02.255Z,25.17
2022-11-23T09:44:49.499Z,25.33
2022-11-23T09:47:40.529Z,27.83
2022-11-23T09:50:23.504Z,30.63
2022-11-23T09:52:59.281Z,27.83
2022-11-23T09:55:39.579Z,25.40
2022-11-23T09:58:18.007Z,25.57
2022-11-23T10:00:57.397Z,27.80
2022-11-23T10:03:34.537Z,31.40
2022-11-23T10:06:20.816Z,30.97
2022-11-23T10:09:08.089Z,25.07
2022-11-23T10:12:05.519Z,23.90
2022-11-23T10:14:53.220Z,26.30
2022-11-23T10:17:42.554Z,26.40
2022-11-23T10:20:35.613Z,27.13
2022-11-23T10:23:19.830Z,27.00
2022-11-23T10:25:54.886Z,27.13
2022-11-23T10:28:31.700Z,28.40
2022-11-23T10:31:14.521Z,25.63
2022-11-23T10:33:56.864Z,29.30
2022-11-23T10:39:03.783Z,27.77
2022-11-23T10:41:36.731Z,29.50
2022-11-23T10:44:28.533Z,31.53
2022-11-23T10:47:01.472Z,29.57
2022-11-23T10:49:40.192Z,30.37
2022-11-23T10:52:34.133Z,31.02
2022-11-23T10:55:12.125Z,32.10
2022-11-23T10:57:48.273Z,30.80
2022-11-23T11:00:30.228Z,29.60
2022-11-23T11:03:22.595Z,31.07
2022-11-23T11:06:14.658Z,30.97
2022-11-23T11:08:55.801Z,32.53
2022-11-23T11:11:33.829Z,32.10
2022-11-23T11:14:08.524Z,32.40
2022-11-23T11:16:50.864Z,32.47
2022-11-23T11:22:04.175Z,32.17
2022-11-23T11:24:45.386Z,31.03
2022-11-23T11:27:22.695Z,33.23
2022-11-23T11:30:00.652Z,30.40
2022-11-23T11:32:43.389Z,31.77
2022-11-23T11:35:21.340Z,30.40
2022-11-23T11:37:57.653Z,31.57
2022-11-23T11:40:35.046Z,28.00
2022-11-23T11:43:13.318Z,30.47
2022-11-23T11:48:46.765Z,30.00
2022-11-23T11:51:29.611Z,29.63
2022-11-23T11:54:13.030Z,30.87
2022-11-23T11:56:48.253Z,31.23
2022-11-23T11:59:28.671Z,31.87
2022-11-23T12:02:16.138Z,29.07
2022-11-23T12:04:56.849Z,31.50
2022-11-23T12:07:34.699Z,28.27
2022-11-23T12:10:17.033Z,36.37
2022-11-23T12:12:49.944Z,27.70
2022-11-23T12:15:48.223Z,29.90
2022-11-23T12:19:01.274Z,30.50
2022-11-23T12:21:54.505Z,31.93
2022-11-23T12:24:43.480Z,31.03
2022-11-23T12:27:27.177Z,27.07
2022-11-23T12:30:16.137Z,29.40
2022-11-23T12:33:00.660Z,28.30
2022-11-23T12:35:56.165Z,30.57
2022-11-23T12:38:37.101Z,31.00
2022-11-23T12:41:23.598Z,31.50
2022-11-23T12:44:18.265Z,29.57
2022-11-23T12:46:56.190Z,30.23
2022-11-23T12:49:40.365Z,30.90
2022-11-23T12:52:32.623Z,37.10
2022-11-23T12:55:19.815Z,38.65
2022-11-23T12:58:01.573Z,36.47
2022-11-23T13:00:40.188Z,43.53
2022-11-23T13:03:52.743Z,42.80
2022-11-23T13:07:37.485Z,40.23
2022-11-23T13:10:30.963Z,40.33
2022-11-23T13:13:25.176Z,36.83
2022-11-23T13:16:28.486Z,38.13
2022-11-23T13:19:19.418Z,40.23
2022-11-23T13:21:52.508Z,47.40
2022-11-23T13:24:36.504Z,33.27
2022-11-23T13:27:44.417Z,31.97
2022-11-23T13:30:52.059Z,31.37
2022-11-23T13:33:40.018Z,29.67
2022-11-23T13:37:10.581Z,30.57
2022-11-23T13:40:04.707Z,27.70
2022-11-23T13:42:37.779Z,27.03
2022-11-23T13:45:30.692Z,27.53
2022-11-23T13:48:48.983Z,29.43
2022-11-23T13:51:13.080Z,32.07
2022-11-23T13:53:52.523Z,31.20
2022-11-23T13:56:35.320Z,33.67
2022-11-23T13:59:32.604Z,34.00
2022-11-23T14:02:29.718Z,33.87
2022-11-23T14:05:53.678Z,37.73
2022-11-23T14:08:27.691Z,34.13
2022-11-23T14:11:02.197Z,34.83
2022-11-23T14:13:37.064Z,31.80
2022-11-23T14:16:15.113Z,36.27
2022-11-23T14:19:02.552Z,33.40
2022-11-23T14:21:55.404Z,36.73
2022-11-23T14:24:51.658Z,41.97
2022-11-23T14:27:47.351Z,39.83
2022-11-23T14:30:41.271Z,49.23
2022-11-23T14:33:44.425Z,45.83
2022-11-23T14:36:30.724Z,48.30
2022-11-23T14:39:28.424Z,38.90
2022-11-23T14:42:05.140Z,45.43
2022-11-23T14:44:41.063Z,35.50
2022-11-23T14:47:15.123Z,39.50
2022-11-23T14:49:54.373Z,38.90
2022-11-23T14:52:31.323Z,42.40
2022-11-23T14:55:07.473Z,44.53
2022-11-23T14:57:49.439Z,37.60
2022-11-23T15:00:37.209Z,41.50
2022-11-23T15:03:48.951Z,40.03
2022-11-23T15:06:14.524Z,42.40
2022-11-23T15:08:54.064Z,43.57
2022-11-23T15:11:30.612Z,42.83
2022-11-23T15:14:03.680Z,45.83
2022-11-23T15:16:43.392Z,42.03
2022-11-23T15:19:30.127Z,43.83
2022-11-23T15:22:03.204Z,45.80
2022-11-23T15:24:36.092Z,42.43
2022-11-23T15:27:17.964Z,49.73
2022-11-23T15:29:57.657Z,51.60
2022-11-23T15:32:34.384Z,54.27
2022-11-23T15:35:14.029Z,49.07
2022-11-23T15:37:50.328Z,54.63
2022-11-23T15:40:24.120Z,53.80
2022-11-23T15:42:57.646Z,48.77
2022-11-23T15:45:58.659Z,52.90
2022-11-23T15:48:35.336Z,57.80
2022-11-23T15:51:10.056Z,57.47
2022-11-23T15:53:51.504Z,52.60
2022-11-23T15:56:28.783Z,54.70
2022-11-23T15:59:05.298Z,53.47
2022-11-23T16:01:41.654Z,53.40
2022-11-23T16:04:30.412Z,55.90
2022-11-23T16:07:17.345Z,55.30
2022-11-23T16:09:53.107Z,61.53
2022-11-23T16:12:29.496Z,65.10
2022-11-23T16:15:41.699Z,60.87
2022-11-23T16:18:25.789Z,63.33
2022-11-23T16:21:01.579Z,60.07
2022-11-23T16:23:49.700Z,67.37
2022-11-23T16:26:31.405Z,56.20
2022-11-23T16:29:06.084Z,59.18
2022-11-23T16:31:42.307Z,58.60
2022-11-23T16:34:19.467Z,53.23
2022-11-23T16:36:53.268Z,55.97
2022-11-23T16:39:27.913Z,54.00
2022-11-23T16:42:00.773Z,62.63
2022-11-23T16:44:38.734Z,52.33
2022-11-23T16:47:25.176Z,54.03
2022-11-23T16:49:58.924Z,57.37
2022-11-23T16:52:33.421Z,52.87
2022-11-23T16:55:07.466Z,50.70
2022-11-23T16:57:41.591Z,53.13
2022-11-23T17:00:21.055Z,53.63
2022-11-23T17:02:54.102Z,50.80
2022-11-23T17:05:27.066Z,52.70
2022-11-23T17:08:00.166Z,53.23
2022-11-23T17:10:34.154Z,49.97
2022-11-23T17:13:21.836Z,47.40
2022-11-23T17:15:55.699Z,49.63
2022-11-23T17:18:28.643Z,52.00
2022-11-23T17:21:01.626Z,50.27
2022-11-23T17:23:34.869Z,51.20
2022-11-23T17:26:30.047Z,47.40
2022-11-23T17:29:06.146Z,48.03
2022-11-23T17:31:43.708Z,48.87
2022-11-23T17:34:17.452Z,46.70
2022-11-23T17:36:53.445Z,53.23
2022-11-23T17:39:28.709Z,46.07
2022-11-23T17:42:05.111Z,49.97
2022-11-23T17:44:41.100Z,45.67
2022-11-23T17:47:29.812Z,44.60
2022-11-23T17:50:03.417Z,41.07
2022-11-23T17:52:36.565Z,41.93
2022-11-23T17:55:12.675Z,38.33
2022-11-23T17:57:46.697Z,37.63
2022-11-23T18:00:23.752Z,39.73
2022-11-23T18:02:56.765Z,42.53
2022-11-23T18:05:30.080Z,38.23
2022-11-23T18:08:03.076Z,39.13
2022-11-23T18:10:35.910Z,40.30
2022-11-23T18:13:10.126Z,37.67
2022-11-23T18:15:45.354Z,38.13
2022-11-23T18:18:19.963Z,38.03
2022-11-23T18:20:53.174Z,35.77
2022-11-23T18:23:26.188Z,33.60
2022-11-23T18:26:03.581Z,34.03
2022-11-23T18:28:36.466Z,38.63
2022-11-23T18:31:10.852Z,34.83
2022-11-23T18:33:43.997Z,37.70
2022-11-23T18:36:17.649Z,35.50
2022-11-23T18:38:50.800Z,35.53
2022-11-23T18:41:23.860Z,39.97
2022-11-23T18:43:56.749Z,39.03
2022-11-23T18:46:29.659Z,40.77
2022-11-23T18:49:02.656Z,36.63
2022-11-23T18:51:37.218Z,40.97
2022-11-23T18:54:10.352Z,38.47
2022-11-23T18:56:43.340Z,37.47
2022-11-23T18:59:42.016Z,38.67
2022-11-23T19:02:10.045Z,40.73
2022-11-23T19:04:43.286Z,38.50
2022-11-23T19:07:16.254Z,39.80
2022-11-23T19:09:50.877Z,40.83
2022-11-23T19:12:24.066Z,38.10
2022-11-23T19:14:57.030Z,40.00
2022-11-23T19:17:30.006Z,39.13
2022-11-23T19:20:04.003Z,43.07
2022-11-23T19:22:37.228Z,40.57
2022-11-23T19:25:11.649Z,43.20
2022-11-23T19:27:44.554Z,41.60
2022-11-23T19:30:19.348Z,40.77
2022-11-23T19:32:52.169Z,37.37
2022-11-23T19:35:25.172Z,37.33
2022-11-23T19:37:58.638Z,37.50
2022-11-23T19:40:32.479Z,35.13
2022-11-23T19:43:05.395Z,48.53
2022-11-23T19:45:38.260Z,43.37
2022-11-23T19:48:11.723Z,38.67
2022-11-23T19:50:44.570Z,38.97
2022-11-23T19:53:17.550Z,39.47
2022-11-23T19:55:50.380Z,36.07
2022-11-23T19:58:23.505Z,38.17
2022-11-23T20:01:02.253Z,37.33
2022-11-23T20:03:38.417Z,38.37
2022-11-23T20:06:17.522Z,40.17
2022-11-23T20:08:54.984Z,39.37
2022-11-23T20:11:29.752Z,39.57
2022-11-23T20:14:03.131Z,41.93
2022-11-23T20:16:36.279Z,43.63
2022-11-23T20:19:10.496Z,43.50
2022-11-23T20:21:43.555Z,44.70
2022-11-23T20:24:17.086Z,52.93
2022-11-23T20:26:49.980Z,47.20
2022-11-23T20:29:23.160Z,52.43
2022-11-23T20:31:56.657Z,52.17
2022-11-23T20:34:31.348Z,51.00
2022-11-23T20:37:05.956Z,43.30
2022-11-23T20:39:39.030Z,40.30
2022-11-23T20:42:14.874Z,39.23
2022-11-23T20:44:47.844Z,40.23
2022-11-23T20:47:20.700Z,39.27
2022-11-23T20:49:53.635Z,39.65
2022-11-23T20:52:28.757Z,42.07
2022-11-23T20:55:02.187Z,42.33
2022-11-23T20:57:38.419Z,44.23
2022-11-23T21:00:16.977Z,44.27
2022-11-23T21:02:53.428Z,41.50
2022-11-23T21:05:26.487Z,44.50
2022-11-23T21:08:02.701Z,43.20
2022-11-23T21:11:22.820Z,44.63
2022-11-23T21:14:48.945Z,44.23
2022-11-23T21:17:55.230Z,40.07
2022-11-23T21:20:59.487Z,41.90
2022-11-23T21:23:54.035Z,45.70
2022-11-23T21:26:28.658Z,45.30
2022-11-23T21:29:02.987Z,44.43
2022-11-23T21:31:36.452Z,53.17
2022-11-23T21:34:12.436Z,58.63
2022-11-23T21:36:45.328Z,45.57
2022-11-23T21:39:18.812Z,44.87
2022-11-23T21:41:53.753Z,47.90
2022-11-23T21:44:26.624Z,44.37
2022-11-23T21:46:59.632Z,48.70
2022-11-23T21:49:32.731Z,49.57
2022-11-23T21:52:09.073Z,48.53
2022-11-23T21:54:47.323Z,47.60
2022-11-23T21:57:22.226Z,44.23
2022-11-23T21:59:55.046Z,48.73
2022-11-23T22:02:28.338Z,44.77
2022-11-23T22:05:04.218Z,47.70
2022-11-23T22:07:37.753Z,46.73
2022-11-23T22:10:11.755Z,46.57
2022-11-23T22:12:44.764Z,42.93
2022-11-23T22:15:17.909Z,46.63
2022-11-23T22:17:53.228Z,41.33
2022-11-23T22:20:26.309Z,44.77
2022-11-23T22:22:59.332Z,46.80
2022-11-23T22:25:33.489Z,42.77
2022-11-23T22:28:06.769Z,44.77
2022-11-23T22:30:39.703Z,45.23
2022-11-23T22:33:13.636Z,46.63
2022-11-23T22:35:46.444Z,48.57
2022-11-23T22:38:19.501Z,44.90
2022-11-23T22:40:52.290Z,48.03
2022-11-23T22:43:25.098Z,45.73
2022-11-23T22:46:05.378Z,47.37
2022-11-23T22:48:41.911Z,49.27
2022-11-23T22:51:16.622Z,47.30
2022-11-23T22:53:50.140Z,49.50
2022-11-23T22:56:23.823Z,47.50
2022-11-23T22:58:56.993Z,47.67
2022-11-23T23:01:32.082Z,48.87
2022-11-23T23:04:05.662Z,48.47
2022-11-23T23:06:39.095Z,47.07
2022-11-23T23:09:13.258Z,46.27
2022-11-23T23:11:46.170Z,49.47
2022-11-23T23:14:19.054Z,47.73
2022-11-23T23:16:52.785Z,43.17
2022-11-23T23:19:26.730Z,43.57
2022-11-23T23:21:59.631Z,46.43
2022-11-23T23:24:32.978Z,43.10
2022-11-23T23:27:06.319Z,45.43
2022-11-23T23:29:39.759Z,39.67
2022-11-23T23:32:13.625Z,42.90
2022-11-23T23:34:46.418Z,42.10
2022-11-23T23:37:23.602Z,40.10
2022-11-23T23:39:57.254Z,42.50
2022-11-23T23:42:30.149Z,42.03
2022-11-23T23:45:04.550Z,40.83
2022-11-23T23:47:37.776Z,37.30
2022-11-23T23:50:12.446Z,40.67
2022-11-23T23:52:45.465Z,39.43
2022-11-23T23:55:18.474Z,37.03
2022-11-23T23:57:51.223Z,37.40
